createdAt,value
2023-05-03T00:01:59.409Z,68.15
2023-05-03T00:04:27.058Z,68.40
2023-05-03T00:06:54.744Z,68.73
2023-05-03T00:09:22.410Z,68.53
2023-05-03T00:11:50.000Z,68.59
2023-05-03T00:14:17.999Z,68.73
2023-05-03T00:16:45.992Z,68.79
2023-05-03T00:19:24.283Z,69.16
2023-05-03T00:21:58.480Z,68.78
2023-05-03T00:24:26.443Z,69.48
2023-05-03T00:26:54.391Z,69.20
2023-05-03T00:29:23.130Z,68.48
2023-05-03T00:31:50.779Z,68.51
2023-05-03T00:34:18.340Z,68.84
2023-05-03T00:36:46.431Z,68.67
2023-05-03T00:39:14.485Z,68.91
2023-05-03T00:41:42.238Z,68.58
2023-05-03T00:44:09.879Z,68.78
2023-05-03T00:46:37.452Z,69.28
2023-05-03T00:49:05.276Z,68.52
2023-05-03T00:51:34.320Z,69.20
2023-05-03T00:54:02.033Z,68.78
2023-05-03T00:56:31.108Z,69.60
2023-05-03T00:59:00.616Z,68.93
2023-05-03T01:01:29.140Z,69.20
2023-05-03T01:03:57.116Z,68.78
2023-05-03T01:06:25.029Z,68.50
2023-05-03T01:08:52.687Z,69.52
2023-05-03T01:11:20.743Z,69.38
2023-05-03T01:13:50.325Z,69.10
2023-05-03T01:16:17.983Z,69.07
2023-05-03T01:18:49.059Z,69.31
2023-05-03T01:21:16.699Z,69.46
2023-05-03T01:23:44.272Z,68.78
2023-05-03T01:26:12.246Z,68.56
2023-05-03T01:28:39.880Z,68.98
2023-05-03T01:31:07.538Z,68.95
2023-05-03T01:33:35.119Z,68.97
2023-05-03T01:36:03.038Z,68.89
2023-05-03T01:38:31.053Z,69.46
2023-05-03T01:40:58.632Z,69.93
2023-05-03T01:43:26.507Z,69.27
2023-05-03T01:45:54.115Z,69.47
2023-05-03T01:48:21.711Z,69.36
2023-05-03T01:50:49.680Z,69.69
2023-05-03T01:53:17.264Z,69.51
2023-05-03T01:55:44.831Z,70.10
2023-05-03T01:58:12.782Z,70.07
2023-05-03T02:00:40.430Z,70.19
2023-05-03T02:03:08.159Z,69.63
2023-05-03T02:05:36.294Z,70.17
2023-05-03T02:08:03.890Z,69.54
2023-05-03T02:10:31.457Z,70.09
2023-05-03T02:12:59.096Z,70.14
2023-05-03T02:15:27.069Z,69.76
2023-05-03T02:17:55.787Z,69.44
2023-05-03T02:20:23.779Z,69.58
2023-05-03T02:22:51.353Z,69.79
2023-05-03T02:25:18.923Z,69.69
2023-05-03T02:27:46.898Z,70.34
2023-05-03T02:30:14.838Z,69.82
2023-05-03T02:32:42.446Z,70.43
2023-05-03T02:35:10.086Z,70.84
2023-05-03T02:37:37.643Z,70.35
2023-05-03T02:40:06.320Z,70.35
2023-05-03T02:42:35.548Z,70.18
2023-05-03T02:45:03.452Z,70.43
2023-05-03T02:47:31.030Z,70.70
2023-05-03T02:49:58.647Z,70.32
2023-05-03T02:52:26.606Z,70.40
2023-05-03T02:54:54.720Z,70.22
2023-05-03T02:57:22.308Z,70.15
2023-05-03T02:59:49.862Z,70.49
2023-05-03T03:02:17.424Z,70.24
2023-05-03T03:04:46.994Z,70.44
2023-05-03T03:07:14.595Z,70.51
2023-05-03T03:09:42.208Z,70.49
2023-05-03T03:12:09.778Z,70.82
2023-05-03T03:14:37.323Z,70.26
2023-05-03T03:17:05.358Z,70.40
2023-05-03T03:19:33.147Z,71.03
2023-05-03T03:22:00.734Z,70.91
2023-05-03T03:24:28.291Z,70.23
2023-05-03T03:26:56.324Z,70.47
2023-05-03T03:29:23.912Z,70.48
2023-05-03T03:31:51.929Z,70.78
2023-05-03T03:34:19.817Z,70.77
2023-05-03T03:36:47.596Z,70.69
2023-05-03T03:39:15.184Z,71.23
2023-05-03T03:41:43.194Z,70.98
2023-05-03T03:44:10.727Z,70.80
2023-05-03T03:46:38.336Z,70.91
2023-05-03T03:49:06.482Z,70.21
2023-05-03T03:51:34.007Z,70.46
2023-05-03T03:54:01.923Z,70.93
2023-05-03T03:56:29.504Z,71.42
2023-05-03T03:58:57.376Z,71.03
2023-05-03T04:01:25.100Z,70.78
2023-05-03T04:03:52.834Z,70.94
2023-05-03T04:06:21.415Z,71.04
2023-05-03T04:08:49.081Z,70.77
2023-05-03T04:11:16.697Z,70.59
2023-05-03T04:13:44.488Z,70.36
2023-05-03T04:16:12.110Z,70.24
2023-05-03T04:18:40.067Z,70.78
2023-05-03T04:21:08.248Z,70.70
2023-05-03T04:23:35.805Z,70.58
2023-05-03T04:26:04.822Z,70.11
2023-05-03T04:28:33.114Z,70.32
2023-05-03T04:31:01.109Z,70.17
2023-05-03T04:33:31.712Z,70.36
2023-05-03T04:35:59.319Z,70.02
2023-05-03T04:38:26.898Z,69.77
2023-05-03T04:40:54.646Z,70.12
2023-05-03T04:43:23.873Z,70.40
2023-05-03T04:45:51.827Z,70.12
2023-05-03T04:48:19.466Z,69.50
2023-05-03T04:50:47.290Z,69.24
2023-05-03T04:53:14.932Z,69.03
2023-05-03T04:55:43.270Z,69.10
2023-05-03T04:58:11.107Z,68.94
2023-05-03T05:00:38.726Z,69.01
2023-05-03T05:03:07.330Z,69.66
2023-05-03T05:05:35.059Z,69.26
2023-05-03T05:08:03.100Z,68.93
2023-05-03T05:10:31.087Z,69.01
2023-05-03T05:12:59.222Z,68.18
2023-05-03T05:15:26.865Z,68.31
2023-05-03T05:17:54.937Z,68.65
2023-05-03T05:20:23.147Z,68.53
2023-05-03T05:22:51.002Z,67.86
2023-05-03T05:25:18.624Z,67.80
2023-05-03T05:27:46.223Z,66.93
2023-05-03T05:30:14.016Z,67.47
2023-05-03T05:32:42.058Z,66.70
2023-05-03T05:35:09.879Z,66.87
2023-05-03T05:37:37.488Z,66.77
2023-05-03T05:40:06.291Z,66.28
2023-05-03T05:42:33.952Z,65.97
2023-05-03T05:45:02.007Z,66.29
2023-05-03T05:47:29.703Z,66.01
2023-05-03T05:49:57.338Z,65.41
2023-05-03T05:52:24.959Z,64.79
2023-05-03T05:54:52.777Z,65.46
2023-05-03T05:57:20.762Z,65.27
2023-05-03T05:59:48.612Z,64.61
2023-05-03T06:02:18.135Z,64.41
2023-05-03T06:04:46.947Z,64.25
2023-05-03T06:07:14.754Z,64.07
2023-05-03T06:09:43.251Z,64.28
2023-05-03T06:12:11.651Z,63.78
2023-05-03T06:14:44.047Z,63.80
2023-05-03T06:17:17.079Z,63.57
2023-05-03T06:19:45.146Z,62.82
2023-05-03T06:22:13.299Z,62.85
2023-05-03T06:24:41.003Z,63.04
2023-05-03T06:27:08.735Z,62.63
2023-05-03T06:29:36.462Z,62.74
2023-05-03T06:32:05.435Z,62.68
2023-05-03T06:34:33.339Z,62.27
2023-05-03T06:37:00.945Z,62.22
2023-05-03T06:39:28.696Z,61.56
2023-05-03T06:41:56.295Z,61.60
2023-05-03T06:44:24.591Z,61.71
2023-05-03T06:46:52.551Z,61.72
2023-05-03T06:49:20.283Z,61.41
2023-05-03T06:51:47.985Z,61.10
2023-05-03T06:54:15.767Z,61.32
2023-05-03T06:56:43.793Z,61.13
2023-05-03T06:59:11.451Z,61.10
2023-05-03T07:01:39.399Z,60.93
2023-05-03T07:04:07.192Z,60.84
2023-05-03T07:06:44.293Z,60.68
2023-05-03T07:09:16.853Z,60.93
2023-05-03T07:11:49.606Z,60.70
2023-05-03T07:14:17.301Z,60.29
2023-05-03T07:16:45.239Z,60.15
2023-05-03T07:19:13.018Z,60.04
2023-05-03T07:21:41.459Z,60.01
2023-05-03T07:24:09.172Z,59.74
2023-05-03T07:26:37.147Z,59.87
2023-05-03T07:29:04.971Z,59.87
2023-05-03T07:31:32.783Z,59.33
2023-05-03T07:34:00.815Z,59.18
2023-05-03T07:36:28.934Z,58.78
2023-05-03T07:38:58.673Z,58.45
2023-05-03T07:41:26.989Z,58.42
2023-05-03T07:43:55.230Z,58.52
2023-05-03T07:46:23.586Z,58.36
2023-05-03T07:48:51.830Z,58.26
2023-05-03T07:51:19.589Z,58.01
2023-05-03T07:53:47.282Z,57.84
2023-05-03T07:56:15.015Z,57.99
2023-05-03T07:58:45.061Z,58.38
2023-05-03T08:01:14.448Z,58.05
2023-05-03T08:03:43.991Z,57.60
2023-05-03T08:06:11.781Z,57.32
2023-05-03T08:08:39.626Z,57.25
2023-05-03T08:11:08.152Z,57.34
2023-05-03T08:13:36.362Z,57.34
2023-05-03T08:16:04.206Z,56.81
2023-05-03T08:18:32.329Z,56.94
2023-05-03T08:21:00.199Z,56.53
2023-05-03T08:23:28.387Z,56.68
2023-05-03T08:25:57.016Z,56.77
2023-05-03T08:28:24.862Z,56.40
2023-05-03T08:30:52.761Z,56.66
2023-05-03T08:33:20.908Z,56.11
2023-05-03T08:35:49.481Z,56.16
2023-05-03T08:38:17.428Z,55.77
2023-05-03T08:40:45.252Z,55.55
2023-05-03T08:43:13.015Z,55.66
2023-05-03T08:45:40.886Z,55.21
2023-05-03T08:48:08.809Z,54.59
2023-05-03T08:50:42.285Z,55.13
2023-05-03T08:53:10.702Z,55.04
2023-05-03T08:55:38.778Z,54.79
2023-05-03T08:58:10.693Z,55.12
2023-05-03T09:00:39.039Z,54.50
2023-05-03T09:03:07.232Z,54.41
2023-05-03T09:05:35.567Z,54.19
2023-05-03T09:08:04.010Z,53.78
2023-05-03T09:10:32.193Z,53.91
2023-05-03T09:13:00.459Z,53.43
2023-05-03T09:15:29.773Z,52.97
2023-05-03T09:17:57.920Z,53.74
2023-05-03T09:20:25.925Z,52.82
2023-05-03T09:22:53.749Z,53.63
2023-05-03T09:25:21.991Z,53.42
2023-05-03T09:27:49.785Z,52.45
2023-05-03T09:30:17.844Z,52.66
2023-05-03T09:32:45.680Z,52.26
2023-05-03T09:35:14.593Z,52.25
2023-05-03T09:37:42.442Z,51.48
2023-05-03T09:40:11.846Z,51.08
2023-05-03T09:42:43.911Z,50.57
2023-05-03T09:45:11.632Z,50.44
2023-05-03T09:47:39.746Z,49.59
2023-05-03T09:50:08.130Z,49.43
2023-05-03T09:52:35.837Z,48.60
2023-05-03T09:55:03.884Z,48.86
2023-05-03T09:57:32.067Z,48.04
2023-05-03T10:00:00.208Z,47.55
2023-05-03T10:02:29.039Z,46.79
2023-05-03T10:04:59.273Z,46.74
2023-05-03T10:07:27.368Z,45.54
2023-05-03T10:09:57.024Z,45.57
2023-05-03T10:12:25.430Z,45.26
2023-05-03T10:14:53.607Z,45.08
2023-05-03T10:17:22.305Z,43.98
2023-05-03T10:19:53.186Z,43.59
2023-05-03T10:22:21.044Z,43.57
2023-05-03T10:24:49.375Z,43.43
2023-05-03T10:27:17.701Z,42.42
2023-05-03T10:29:49.137Z,41.96
2023-05-03T10:32:17.386Z,42.47
2023-05-03T10:34:46.467Z,41.61
2023-05-03T10:37:15.962Z,40.86
2023-05-03T10:39:44.319Z,40.63
2023-05-03T10:42:12.167Z,40.69
2023-05-03T10:44:40.207Z,40.51
2023-05-03T10:47:08.047Z,39.15
2023-05-03T10:49:35.902Z,39.48
2023-05-03T10:52:04.255Z,38.88
2023-05-03T10:54:32.134Z,39.25
2023-05-03T10:57:00.197Z,38.27
2023-05-03T10:59:28.119Z,38.01
2023-05-03T11:01:56.482Z,37.93
2023-05-03T11:04:24.681Z,37.68
2023-05-03T11:06:57.159Z,37.72
2023-05-03T11:09:25.315Z,37.29
2023-05-03T11:11:53.188Z,37.15
2023-05-03T11:14:22.067Z,37.58
2023-05-03T11:16:51.985Z,36.43
2023-05-03T11:19:19.798Z,36.86
2023-05-03T11:21:48.469Z,36.67
2023-05-03T11:24:16.466Z,35.80
2023-05-03T11:26:44.280Z,35.96
2023-05-03T11:29:14.273Z,35.55
2023-05-03T11:31:43.446Z,35.78
2023-05-03T11:34:11.496Z,34.86
2023-05-03T11:36:39.509Z,35.25
2023-05-03T11:39:07.257Z,35.60
2023-05-03T11:41:35.801Z,35.10
2023-05-03T11:44:15.153Z,35.13
2023-05-03T11:46:45.392Z,35.00
2023-05-03T11:49:14.064Z,34.96
2023-05-03T11:51:42.764Z,34.76
2023-05-03T11:54:24.283Z,34.55
2023-05-03T11:56:54.590Z,34.20
2023-05-03T11:59:22.722Z,34.26
2023-05-03T12:01:51.858Z,34.25
2023-05-03T12:04:19.936Z,34.60
2023-05-03T12:06:54.062Z,33.67
2023-05-03T12:09:26.563Z,33.58
2023-05-03T12:11:55.922Z,33.75
2023-05-03T12:14:24.976Z,33.82
2023-05-03T12:16:53.442Z,33.92
2023-05-03T12:19:23.045Z,33.13
2023-05-03T12:22:04.621Z,32.72
2023-05-03T12:24:39.829Z,32.69
2023-05-03T12:27:08.591Z,33.22
2023-05-03T12:29:37.234Z,33.24
2023-05-03T12:32:05.651Z,33.13
2023-05-03T12:34:36.237Z,33.05
2023-05-03T12:37:05.999Z,33.50
2023-05-03T12:39:35.897Z,33.74
2023-05-03T12:42:09.604Z,33.75
2023-05-03T12:44:41.701Z,34.51
2023-05-03T12:47:11.244Z,34.31
2023-05-03T12:49:40.122Z,35.49
2023-05-03T12:54:42.227Z,35.95
2023-05-03T12:57:15.410Z,35.67
2023-05-03T12:59:51.889Z,36.29
2023-05-03T13:03:14.623Z,36.74
2023-05-03T13:05:17.060Z,37.05
2023-05-03T13:07:56.601Z,36.88
2023-05-03T13:10:27.167Z,37.09
2023-05-03T13:12:55.670Z,37.51
2023-05-03T13:15:25.874Z,36.88
2023-05-03T13:17:54.637Z,36.84
2023-05-03T13:20:22.794Z,36.82
2023-05-03T13:22:51.025Z,37.11
2023-05-03T13:25:18.848Z,36.83
2023-05-03T13:27:47.276Z,36.96
2023-05-03T13:30:15.867Z,36.67
2023-05-03T13:32:49.690Z,36.87
2023-05-03T13:35:18.035Z,37.14
2023-05-03T13:37:45.828Z,36.91
2023-05-03T13:40:15.669Z,36.88
2023-05-03T13:42:43.475Z,36.57
2023-05-03T13:45:11.318Z,36.12
2023-05-03T13:48:04.333Z,36.55
2023-05-03T13:50:28.029Z,35.63
2023-05-03T13:52:56.721Z,35.89
2023-05-03T13:55:26.597Z,35.77
2023-05-03T13:57:54.672Z,36.08
2023-05-03T14:00:22.560Z,36.60
2023-05-03T14:02:51.958Z,36.56
2023-05-03T14:05:20.266Z,36.85
2023-05-03T14:07:48.367Z,36.52
2023-05-03T14:10:16.414Z,36.17
2023-05-03T14:12:45.295Z,35.74
2023-05-03T14:15:14.297Z,36.24
2023-05-03T14:17:43.808Z,35.41
2023-05-03T14:20:12.261Z,36.33
2023-05-03T14:22:40.823Z,35.33
2023-05-03T14:25:08.599Z,35.23
2023-05-03T14:27:36.903Z,35.69
2023-05-03T14:30:06.421Z,35.22
2023-05-03T14:32:34.394Z,34.98
2023-05-03T14:35:02.394Z,34.39
2023-05-03T14:37:30.790Z,34.27
2023-05-03T14:39:59.506Z,34.10
2023-05-03T14:42:27.301Z,34.76
2023-05-03T14:44:55.143Z,34.78
2023-05-03T14:47:23.329Z,34.70
2023-05-03T14:49:51.192Z,34.77
2023-05-03T14:52:19.604Z,34.00
2023-05-03T14:54:48.017Z,33.26
2023-05-03T14:57:15.937Z,32.82
2023-05-03T14:59:45.497Z,32.19
2023-05-03T15:02:13.414Z,31.25
2023-05-03T15:04:41.653Z,30.46
2023-05-03T15:07:09.972Z,30.03
2023-05-03T15:09:38.253Z,29.21
2023-05-03T15:12:06.451Z,29.42
2023-05-03T15:14:34.328Z,28.96
2023-05-03T15:17:02.615Z,29.36
2023-05-03T15:19:30.391Z,29.86
2023-05-03T15:21:58.433Z,29.54
2023-05-03T15:24:26.218Z,30.31
2023-05-03T15:26:54.070Z,29.93
2023-05-03T15:29:22.459Z,30.05
2023-05-03T15:31:50.334Z,29.63
2023-05-03T15:34:18.039Z,29.27
2023-05-03T15:36:46.454Z,29.33
2023-05-03T15:39:14.398Z,29.21
2023-05-03T15:41:42.241Z,29.82
2023-05-03T15:44:10.199Z,29.57
2023-05-03T15:46:39.506Z,29.99
2023-05-03T15:49:08.986Z,29.35
2023-05-03T15:51:37.393Z,29.56
2023-05-03T15:54:05.907Z,29.18
2023-05-03T15:56:33.852Z,29.57
2023-05-03T15:59:01.840Z,29.31
2023-05-03T16:01:30.210Z,29.21
2023-05-03T16:04:00.415Z,29.11
2023-05-03T16:06:29.412Z,29.04
2023-05-03T16:08:57.411Z,29.04
2023-05-03T16:11:25.257Z,29.22
2023-05-03T16:13:53.331Z,29.71
2023-05-03T16:16:21.341Z,29.79
2023-05-03T16:18:49.568Z,29.85
2023-05-03T16:21:17.716Z,30.31
2023-05-03T16:23:46.363Z,30.27
2023-05-03T16:26:16.396Z,30.70
2023-05-03T16:28:44.303Z,31.55
2023-05-03T16:31:12.752Z,33.24
2023-05-03T16:33:40.541Z,35.38
2023-05-03T16:36:08.845Z,36.61
2023-05-03T16:38:37.342Z,37.88
2023-05-03T16:41:05.123Z,39.01
2023-05-03T16:43:33.990Z,39.77
2023-05-03T16:46:01.886Z,40.39
2023-05-03T16:48:30.021Z,41.13
2023-05-03T16:50:58.414Z,41.21
2023-05-03T16:53:26.409Z,41.72
2023-05-03T16:55:54.560Z,42.06
2023-05-03T16:58:22.521Z,42.11
2023-05-03T17:00:50.470Z,42.45
2023-05-03T17:03:18.999Z,42.95
2023-05-03T17:05:47.077Z,42.98
2023-05-03T17:08:16.041Z,42.75
2023-05-03T17:10:45.478Z,42.79
2023-05-03T17:13:13.742Z,42.83
2023-05-03T17:15:42.079Z,43.18
2023-05-03T17:18:10.392Z,43.24
2023-05-03T17:20:39.680Z,42.90
2023-05-03T17:23:07.689Z,42.99
2023-05-03T17:25:35.921Z,43.15
2023-05-03T17:28:04.148Z,43.24
2023-05-03T17:30:32.687Z,43.07
2023-05-03T17:33:00.876Z,43.08
2023-05-03T17:35:28.866Z,43.63
2023-05-03T17:37:57.314Z,43.39
2023-05-03T17:40:25.610Z,43.79
2023-05-03T17:42:53.800Z,43.60
2023-05-03T17:45:22.148Z,43.68
2023-05-03T17:47:50.092Z,44.00
2023-05-03T17:50:18.033Z,44.09
2023-05-03T17:52:46.137Z,43.88
2023-05-03T17:55:15.273Z,44.27
2023-05-03T17:57:45.356Z,44.16
2023-05-03T18:00:15.611Z,44.46
2023-05-03T18:02:43.536Z,43.81
2023-05-03T18:05:12.034Z,44.50
2023-05-03T18:07:39.850Z,44.71
2023-05-03T18:10:08.193Z,44.80
2023-05-03T18:12:36.370Z,44.46
2023-05-03T18:15:06.403Z,44.60
2023-05-03T18:17:36.513Z,44.76
2023-05-03T18:20:06.020Z,44.96
2023-05-03T18:22:34.393Z,44.97
2023-05-03T18:25:02.496Z,45.19
2023-05-03T18:27:30.317Z,45.87
2023-05-03T18:29:58.562Z,45.45
2023-05-03T18:32:26.575Z,45.29
2023-05-03T18:34:54.804Z,45.37
2023-05-03T18:37:24.688Z,46.00
2023-05-03T18:39:52.759Z,46.04
2023-05-03T18:42:22.672Z,46.01
2023-05-03T18:44:50.634Z,46.13
2023-05-03T18:47:21.367Z,46.83
2023-05-03T18:49:52.948Z,46.96
2023-05-03T18:52:21.584Z,46.87
2023-05-03T18:54:49.813Z,47.41
2023-05-03T18:57:17.723Z,47.11
2023-05-03T18:59:59.486Z,47.10
2023-05-03T19:02:30.938Z,47.63
2023-05-03T19:04:59.226Z,47.84
2023-05-03T19:07:27.116Z,48.11
2023-05-03T19:09:55.641Z,48.08
2023-05-03T19:12:23.590Z,47.99
2023-05-03T19:14:51.860Z,48.68
2023-05-03T19:17:19.611Z,48.90
2023-05-03T19:19:47.506Z,48.49
2023-05-03T19:22:16.109Z,48.84
2023-05-03T19:24:44.219Z,49.08
2023-05-03T19:27:12.661Z,49.27
2023-05-03T19:29:40.461Z,49.44
2023-05-03T19:32:08.212Z,49.23
2023-05-03T19:34:37.118Z,49.31
2023-05-03T19:37:05.298Z,49.96
2023-05-03T19:39:35.889Z,49.49
2023-05-03T19:42:04.262Z,49.57
2023-05-03T19:44:32.198Z,49.41
2023-05-03T19:47:00.437Z,49.73
2023-05-03T19:49:28.290Z,49.66
2023-05-03T19:51:56.228Z,49.92
2023-05-03T19:54:24.013Z,49.79
2023-05-03T19:56:51.971Z,50.54
2023-05-03T19:59:20.147Z,50.44
2023-05-03T20:01:48.157Z,50.48
2023-05-03T20:04:17.834Z,50.23
2023-05-03T20:06:45.723Z,50.56
2023-05-03T20:09:13.483Z,50.37
2023-05-03T20:11:41.839Z,50.40
2023-05-03T20:14:09.661Z,50.16
2023-05-03T20:16:40.033Z,50.41
2023-05-03T20:19:07.937Z,50.50
2023-05-03T20:21:35.761Z,50.29
2023-05-03T20:24:05.320Z,50.68
2023-05-03T20:26:33.582Z,50.62
2023-05-03T20:29:01.498Z,50.82
2023-05-03T20:31:29.514Z,50.86
2023-05-03T20:33:57.385Z,50.66
2023-05-03T20:36:25.646Z,51.00
2023-05-03T20:38:54.946Z,50.75
2023-05-03T20:41:23.453Z,51.08
2023-05-03T20:43:51.555Z,51.16
2023-05-03T20:46:19.417Z,50.96
2023-05-03T20:48:48.344Z,51.11
2023-05-03T20:51:16.286Z,51.62
2023-05-03T20:53:44.533Z,51.02
2023-05-03T20:56:12.786Z,51.38
2023-05-03T20:58:40.769Z,51.50
2023-05-03T21:01:09.115Z,51.89
2023-05-03T21:03:36.917Z,52.31
2023-05-03T21:06:05.720Z,52.58
2023-05-03T21:08:33.428Z,52.75
2023-05-03T21:11:01.205Z,52.63
2023-05-03T21:13:29.282Z,52.77
2023-05-03T21:15:56.998Z,53.17
2023-05-03T21:18:25.164Z,53.08
2023-05-03T21:20:53.047Z,53.43
2023-05-03T21:23:20.750Z,53.36
2023-05-03T21:25:48.814Z,53.14
2023-05-03T21:28:17.460Z,53.57
2023-05-03T21:30:48.560Z,53.48
2023-05-03T21:33:16.596Z,53.34
2023-05-03T21:35:44.387Z,53.15
2023-05-03T21:38:12.522Z,53.54
2023-05-03T21:40:40.247Z,54.14
2023-05-03T21:43:09.383Z,53.71
2023-05-03T21:45:37.207Z,54.25
2023-05-03T21:48:05.245Z,54.09
2023-05-03T21:50:33.369Z,54.14
2023-05-03T21:53:01.203Z,54.15
2023-05-03T21:55:30.423Z,54.33
2023-05-03T21:57:58.218Z,54.20
2023-05-03T22:00:27.470Z,54.31
2023-05-03T22:02:55.985Z,54.45
2023-05-03T22:05:24.514Z,54.96
2023-05-03T22:07:52.524Z,55.20
2023-05-03T22:10:20.334Z,54.71
2023-05-03T22:12:48.102Z,55.30
2023-05-03T22:15:16.067Z,54.70
2023-05-03T22:17:44.090Z,54.67
2023-05-03T22:20:12.317Z,55.29
2023-05-03T22:22:39.968Z,54.99
2023-05-03T22:25:08.112Z,55.00
2023-05-03T22:27:36.111Z,55.28
2023-05-03T22:30:04.025Z,55.25
2023-05-03T22:32:32.585Z,55.16
2023-05-03T22:35:00.240Z,55.20
2023-05-03T22:37:27.958Z,55.48
2023-05-03T22:39:55.956Z,55.17
2023-05-03T22:42:23.629Z,55.29
2023-05-03T22:44:51.267Z,55.37
2023-05-03T22:47:18.938Z,55.49
2023-05-03T22:49:46.549Z,55.64
2023-05-03T22:52:14.515Z,55.59
2023-05-03T22:54:42.147Z,55.72
2023-05-03T22:57:09.761Z,56.13
2023-05-03T22:59:37.795Z,55.82
2023-05-03T23:02:06.963Z,56.11
2023-05-03T23:04:34.972Z,56.03
2023-05-03T23:07:03.296Z,55.71
2023-05-03T23:09:31.073Z,55.60
2023-05-03T23:11:58.970Z,56.14
2023-05-03T23:14:26.528Z,55.92
2023-05-03T23:16:54.531Z,56.10
2023-05-03T23:19:22.141Z,56.78
2023-05-03T23:21:49.994Z,56.14
2023-05-03T23:24:18.168Z,56.22
2023-05-03T23:26:45.741Z,56.19
2023-05-03T23:29:14.257Z,56.71
2023-05-03T23:31:42.409Z,56.71
2023-05-03T23:34:10.697Z,56.73
2023-05-03T23:36:38.273Z,57.15
2023-05-03T23:39:05.916Z,56.74
2023-05-03T23:41:34.424Z,56.50
2023-05-03T23:44:02.276Z,56.64
2023-05-03T23:46:31.014Z,56.70
2023-05-03T23:48:58.606Z,56.88
2023-05-03T23:51:26.168Z,56.87
2023-05-03T23:53:54.576Z,57.17
2023-05-03T23:56:22.152Z,57.08
2023-05-03T23:58:49.700Z,57.29
